sensor_id;sensor_type;location;lat;lon;timestamp;P1;durP1;ratioP1;P2;durP2;ratioP2
10005;SDS011;5042;42.626;23.382;2022-10-31T00:01:43;3.40;;;2.10;;
10005;SDS011;5042;42.626;23.382;2022-10-31T00:04:10;2.27;;;2.07;;
10005;SDS011;5042;42.626;23.382;2022-10-31T00:06:37;2.17;;;2.00;;
10005;SDS011;5042;42.626;23.382;2022-10-31T00:09:04;2.43;;;2.23;;
10005;SDS011;5042;42.626;23.382;2022-10-31T00:11:31;2.27;;;1.90;;
10005;SDS011;5042;42.626;23.382;2022-10-31T00:13:58;2.50;;;1.90;;
10005;SDS011;5042;42.626;23.382;2022-10-31T00:16:25;2.03;;;1.90;;
10005;SDS011;5042;42.626;23.382;2022-10-31T00:18:55;1.83;;;1.73;;
10005;SDS011;5042;42.626;23.382;2022-10-31T00:21:24;3.47;;;2.43;;
10005;SDS011;5042;42.626;23.382;2022-10-31T00:23:51;3.10;;;1.80;;
10005;SDS011;5042;42.626;23.382;2022-10-31T00:26:18;2.70;;;2.03;;
10005;SDS011;5042;42.626;23.382;2022-10-31T00:28:45;2.57;;;2.00;;
10005;SDS011;5042;42.626;23.382;2022-10-31T00:31:12;2.40;;;2.20;;
10005;SDS011;5042;42.626;23.382;2022-10-31T00:33:39;2.07;;;1.90;;
10005;SDS011;5042;42.626;23.382;2022-10-31T00:36:10;2.33;;;1.87;;
10005;SDS011;5042;42.626;23.382;2022-10-31T00:38:38;2.43;;;2.23;;
10005;SDS011;5042;42.626;23.382;2022-10-31T00:41:05;3.67;;;1.80;;
10005;SDS011;5042;42.626;23.382;2022-10-31T00:43:31;3.03;;;2.20;;
10005;SDS011;5042;42.626;23.382;2022-10-31T00:45:58;2.30;;;2.10;;
10005;SDS011;5042;42.626;23.382;2022-10-31T00:48:25;2.13;;;1.93;;
10005;SDS011;5042;42.626;23.382;2022-10-31T00:50:52;2.53;;;2.07;;
10005;SDS011;5042;42.626;23.382;2022-10-31T00:53:20;2.40;;;2.17;;
10005;SDS011;5042;42.626;23.382;2022-10-31T00:55:47;2.33;;;2.10;;
10005;SDS011;5042;42.626;23.382;2022-10-31T00:58:14;2.47;;;2.20;;
10005;SDS011;5042;42.626;23.382;2022-10-31T01:00:40;2.30;;;2.10;;
10005;SDS011;5042;42.626;23.382;2022-10-31T01:03:07;3.47;;;2.30;;
10005;SDS011;5042;42.626;23.382;2022-10-31T01:05:34;2.47;;;2.13;;
10005;SDS011;5042;42.626;23.382;2022-10-31T01:08:01;3.20;;;2.20;;
10005;SDS011;5042;42.626;23.382;2022-10-31T01:10:29;2.30;;;2.10;;
10005;SDS011;5042;42.626;23.382;2022-10-31T01:12:56;2.10;;;1.97;;
10005;SDS011;5042;42.626;23.382;2022-10-31T01:15:23;3.33;;;2.50;;
10005;SDS011;5042;42.626;23.382;2022-10-31T01:17:49;5.17;;;2.37;;
10005;SDS011;5042;42.626;23.382;2022-10-31T01:20:16;3.23;;;1.97;;
10005;SDS011;5042;42.626;23.382;2022-10-31T01:22:43;2.47;;;2.27;;
10005;SDS011;5042;42.626;23.382;2022-10-31T01:25:10;2.53;;;2.33;;
10005;SDS011;5042;42.626;23.382;2022-10-31T01:27:38;2.53;;;2.33;;
10005;SDS011;5042;42.626;23.382;2022-10-31T01:30:05;2.67;;;2.20;;
10005;SDS011;5042;42.626;23.382;2022-10-31T01:32:33;2.67;;;2.27;;
10005;SDS011;5042;42.626;23.382;2022-10-31T01:35:00;3.40;;;2.43;;
10005;SDS011;5042;42.626;23.382;2022-10-31T01:37:26;4.43;;;2.23;;
10005;SDS011;5042;42.626;23.382;2022-10-31T01:39:53;3.30;;;2.40;;
10005;SDS011;5042;42.626;23.382;2022-10-31T01:42:21;2.53;;;2.20;;
10005;SDS011;5042;42.626;23.382;2022-10-31T01:44:54;3.07;;;2.50;;
10005;SDS011;5042;42.626;23.382;2022-10-31T01:47:26;4.77;;;2.93;;
10005;SDS011;5042;42.626;23.382;2022-10-31T01:49:59;2.80;;;2.10;;
10005;SDS011;5042;42.626;23.382;2022-10-31T01:52:30;3.73;;;2.23;;
10005;SDS011;5042;42.626;23.382;2022-10-31T01:55:04;3.57;;;2.37;;
10005;SDS011;5042;42.626;23.382;2022-10-31T01:57:34;3.33;;;2.37;;
10005;SDS011;5042;42.626;23.382;2022-10-31T02:00:06;2.50;;;2.03;;
10005;SDS011;5042;42.626;23.382;2022-10-31T02:02:35;3.73;;;2.13;;
10005;SDS011;5042;42.626;23.382;2022-10-31T02:05:02;2.50;;;2.30;;
10005;SDS011;5042;42.626;23.382;2022-10-31T02:07:33;3.03;;;2.40;;
10005;SDS011;5042;42.626;23.382;2022-10-31T02:10:04;2.50;;;2.23;;
10005;SDS011;5042;42.626;23.382;2022-10-31T02:12:31;2.73;;;2.27;;
10005;SDS011;5042;42.626;23.382;2022-10-31T02:15:01;2.90;;;2.10;;
10005;SDS011;5042;42.626;23.382;2022-10-31T02:17:30;4.07;;;2.50;;
10005;SDS011;5042;42.626;23.382;2022-10-31T02:20:00;2.67;;;2.43;;
10005;SDS011;5042;42.626;23.382;2022-10-31T02:22:40;5.07;;;2.37;;
10005;SDS011;5042;42.626;23.382;2022-10-31T02:25:22;3.93;;;2.17;;
10005;SDS011;5042;42.626;23.382;2022-10-31T02:28:13;3.23;;;2.60;;
10005;SDS011;5042;42.626;23.382;2022-10-31T02:31:08;4.10;;;2.30;;
10005;SDS011;5042;42.626;23.382;2022-10-31T02:33:48;2.90;;;2.40;;
10005;SDS011;5042;42.626;23.382;2022-10-31T02:36:20;2.87;;;2.23;;
10005;SDS011;5042;42.626;23.382;2022-10-31T02:38:57;3.30;;;2.10;;
10005;SDS011;5042;42.626;23.382;2022-10-31T02:41:32;3.10;;;2.20;;
10005;SDS011;5042;42.626;23.382;2022-10-31T02:44:05;2.33;;;2.10;;
10005;SDS011;5042;42.626;23.382;2022-10-31T02:46:42;2.70;;;2.10;;
10005;SDS011;5042;42.626;23.382;2022-10-31T02:49:11;4.53;;;2.77;;
10005;SDS011;5042;42.626;23.382;2022-10-31T02:51:46;3.30;;;2.50;;
10005;SDS011;5042;42.626;23.382;2022-10-31T02:54:17;2.20;;;2.00;;
10005;SDS011;5042;42.626;23.382;2022-10-31T02:56:46;6.03;;;2.40;;
10005;SDS011;5042;42.626;23.382;2022-10-31T02:59:15;2.87;;;2.10;;
10005;SDS011;5042;42.626;23.382;2022-10-31T03:01:50;3.07;;;2.30;;
10005;SDS011;5042;42.626;23.382;2022-10-31T03:04:44;3.17;;;2.70;;
10005;SDS011;5042;42.626;23.382;2022-10-31T03:07:39;3.00;;;2.30;;
10005;SDS011;5042;42.626;23.382;2022-10-31T03:10:14;3.63;;;2.30;;
10005;SDS011;5042;42.626;23.382;2022-10-31T03:12:48;2.50;;;2.10;;
10005;SDS011;5042;42.626;23.382;2022-10-31T03:15:21;2.70;;;2.20;;
10005;SDS011;5042;42.626;23.382;2022-10-31T03:17:55;2.93;;;2.67;;
10005;SDS011;5042;42.626;23.382;2022-10-31T03:20:28;3.33;;;2.33;;
10005;SDS011;5042;42.626;23.382;2022-10-31T03:22:59;2.87;;;2.20;;
10005;SDS011;5042;42.626;23.382;2022-10-31T03:25:28;2.67;;;2.43;;
10005;SDS011;5042;42.626;23.382;2022-10-31T03:27:57;2.47;;;2.27;;
10005;SDS011;5042;42.626;23.382;2022-10-31T03:30:27;2.60;;;2.30;;
10005;SDS011;5042;42.626;23.382;2022-10-31T03:32:56;3.10;;;2.43;;
10005;SDS011;5042;42.626;23.382;2022-10-31T03:35:28;2.70;;;2.40;;
10005;SDS011;5042;42.626;23.382;2022-10-31T03:37:56;2.40;;;2.20;;
10005;SDS011;5042;42.626;23.382;2022-10-31T03:40:26;3.43;;;2.47;;
10005;SDS011;5042;42.626;23.382;2022-10-31T03:42:55;2.97;;;2.70;;
10005;SDS011;5042;42.626;23.382;2022-10-31T03:45:26;2.77;;;2.57;;
10005;SDS011;5042;42.626;23.382;2022-10-31T03:47:57;2.70;;;2.50;;
10005;SDS011;5042;42.626;23.382;2022-10-31T03:50:25;2.90;;;2.50;;
10005;SDS011;5042;42.626;23.382;2022-10-31T03:52:57;3.00;;;2.70;;
10005;SDS011;5042;42.626;23.382;2022-10-31T03:55:30;4.10;;;2.93;;
10005;SDS011;5042;42.626;23.382;2022-10-31T03:58:02;4.23;;;2.53;;
10005;SDS011;5042;42.626;23.382;2022-10-31T04:00:34;2.73;;;2.27;;
10005;SDS011;5042;42.626;23.382;2022-10-31T04:03:09;3.57;;;2.60;;
10005;SDS011;5042;42.626;23.382;2022-10-31T04:05:37;3.47;;;3.03;;
10005;SDS011;5042;42.626;23.382;2022-10-31T04:08:07;4.10;;;2.87;;
10005;SDS011;5042;42.626;23.382;2022-10-31T04:10:38;4.07;;;2.93;;
10005;SDS011;5042;42.626;23.382;2022-10-31T04:13:07;5.03;;;2.97;;
10005;SDS011;5042;42.626;23.382;2022-10-31T04:15:36;4.57;;;3.07;;
10005;SDS011;5042;42.626;23.382;2022-10-31T04:18:05;3.77;;;3.20;;
10005;SDS011;5042;42.626;23.382;2022-10-31T04:20:34;4.23;;;2.70;;
10005;SDS011;5042;42.626;23.382;2022-10-31T04:23:02;3.03;;;2.73;;
10005;SDS011;5042;42.626;23.382;2022-10-31T04:25:31;3.73;;;2.90;;
10005;SDS011;5042;42.626;23.382;2022-10-31T04:27:58;4.50;;;3.20;;
10005;SDS011;5042;42.626;23.382;2022-10-31T04:30:25;4.20;;;2.70;;
10005;SDS011;5042;42.626;23.382;2022-10-31T04:32:52;5.23;;;3.10;;
10005;SDS011;5042;42.626;23.382;2022-10-31T04:35:20;5.53;;;3.47;;
10005;SDS011;5042;42.626;23.382;2022-10-31T04:37:46;5.00;;;3.50;;
10005;SDS011;5042;42.626;23.382;2022-10-31T04:40:13;3.33;;;2.73;;
10005;SDS011;5042;42.626;23.382;2022-10-31T04:42:40;4.50;;;3.17;;
10005;SDS011;5042;42.626;23.382;2022-10-31T04:45:07;4.03;;;3.00;;
10005;SDS011;5042;42.626;23.382;2022-10-31T04:47:34;4.77;;;3.43;;
10005;SDS011;5042;42.626;23.382;2022-10-31T04:50:01;3.20;;;2.90;;
10005;SDS011;5042;42.626;23.382;2022-10-31T04:52:29;4.47;;;3.23;;
10005;SDS011;5042;42.626;23.382;2022-10-31T04:54:56;5.30;;;3.13;;
10005;SDS011;5042;42.626;23.382;2022-10-31T04:57:23;3.20;;;2.90;;
10005;SDS011;5042;42.626;23.382;2022-10-31T04:59:49;4.57;;;3.20;;
10005;SDS011;5042;42.626;23.382;2022-10-31T05:02:16;3.40;;;3.10;;
10005;SDS011;5042;42.626;23.382;2022-10-31T05:04:43;6.73;;;2.97;;
10005;SDS011;5042;42.626;23.382;2022-10-31T05:07:10;3.30;;;2.90;;
10005;SDS011;5042;42.626;23.382;2022-10-31T05:09:38;4.13;;;3.10;;
10005;SDS011;5042;42.626;23.382;2022-10-31T05:12:05;5.30;;;3.33;;
10005;SDS011;5042;42.626;23.382;2022-10-31T05:14:31;3.50;;;3.20;;
10005;SDS011;5042;42.626;23.382;2022-10-31T05:16:58;6.53;;;3.20;;
10005;SDS011;5042;42.626;23.382;2022-10-31T05:19:25;5.30;;;3.13;;
10005;SDS011;5042;42.626;23.382;2022-10-31T05:21:52;4.67;;;3.13;;
10005;SDS011;5042;42.626;23.382;2022-10-31T05:24:18;5.57;;;3.80;;
10005;SDS011;5042;42.626;23.382;2022-10-31T05:26:48;5.53;;;3.67;;
10005;SDS011;5042;42.626;23.382;2022-10-31T05:29:15;8.20;;;3.77;;
10005;SDS011;5042;42.626;23.382;2022-10-31T05:31:42;3.90;;;3.50;;
10005;SDS011;5042;42.626;23.382;2022-10-31T05:34:09;3.30;;;3.00;;
10005;SDS011;5042;42.626;23.382;2022-10-31T05:36:35;3.73;;;2.93;;
10005;SDS011;5042;42.626;23.382;2022-10-31T05:39:02;4.60;;;3.00;;
10005;SDS011;5042;42.626;23.382;2022-10-31T05:41:29;5.40;;;3.93;;
10005;SDS011;5042;42.626;23.382;2022-10-31T05:43:57;3.73;;;2.90;;
10005;SDS011;5042;42.626;23.382;2022-10-31T05:46:24;3.70;;;3.20;;
10005;SDS011;5042;42.626;23.382;2022-10-31T05:48:50;4.30;;;3.23;;
10005;SDS011;5042;42.626;23.382;2022-10-31T05:51:17;6.13;;;3.43;;
10005;SDS011;5042;42.626;23.382;2022-10-31T05:53:45;3.83;;;3.10;;
10005;SDS011;5042;42.626;23.382;2022-10-31T05:56:13;3.90;;;3.20;;
10005;SDS011;5042;42.626;23.382;2022-10-31T05:58:40;5.07;;;3.10;;
10005;SDS011;5042;42.626;23.382;2022-10-31T06:01:08;6.93;;;3.70;;
10005;SDS011;5042;42.626;23.382;2022-10-31T06:03:34;3.80;;;3.13;;
10005;SDS011;5042;42.626;23.382;2022-10-31T06:06:01;6.23;;;3.40;;
10005;SDS011;5042;42.626;23.382;2022-10-31T06:08:28;3.67;;;3.10;;
10005;SDS011;5042;42.626;23.382;2022-10-31T06:10:55;7.13;;;3.73;;
10005;SDS011;5042;42.626;23.382;2022-10-31T06:13:21;4.30;;;3.60;;
10005;SDS011;5042;42.626;23.382;2022-10-31T06:15:48;4.80;;;3.77;;
10005;SDS011;5042;42.626;23.382;2022-10-31T06:18:16;6.40;;;3.73;;
10005;SDS011;5042;42.626;23.382;2022-10-31T06:20:43;6.43;;;4.00;;
10005;SDS011;5042;42.626;23.382;2022-10-31T06:23:10;7.43;;;4.87;;
10005;SDS011;5042;42.626;23.382;2022-10-31T06:25:37;5.13;;;4.30;;
10005;SDS011;5042;42.626;23.382;2022-10-31T06:28:04;6.57;;;4.00;;
10005;SDS011;5042;42.626;23.382;2022-10-31T06:30:30;6.53;;;4.43;;
10005;SDS011;5042;42.626;23.382;2022-10-31T06:33:01;7.63;;;4.10;;
10005;SDS011;5042;42.626;23.382;2022-10-31T06:35:30;5.33;;;3.53;;
10005;SDS011;5042;42.626;23.382;2022-10-31T06:37:57;3.87;;;3.50;;
10005;SDS011;5042;42.626;23.382;2022-10-31T06:40:24;5.80;;;3.40;;
10005;SDS011;5042;42.626;23.382;2022-10-31T06:42:57;6.63;;;4.13;;
10005;SDS011;5042;42.626;23.382;2022-10-31T06:45:24;8.73;;;6.17;;
10005;SDS011;5042;42.626;23.382;2022-10-31T06:47:51;10.33;;;4.67;;
10005;SDS011;5042;42.626;23.382;2022-10-31T06:50:18;7.70;;;3.87;;
10005;SDS011;5042;42.626;23.382;2022-10-31T06:52:50;5.40;;;4.13;;
10005;SDS011;5042;42.626;23.382;2022-10-31T06:55:17;6.30;;;4.60;;
10005;SDS011;5042;42.626;23.382;2022-10-31T06:57:49;8.93;;;4.80;;
10005;SDS011;5042;42.626;23.382;2022-10-31T07:00:16;9.23;;;3.70;;
10005;SDS011;5042;42.626;23.382;2022-10-31T07:02:43;6.73;;;4.10;;
10005;SDS011;5042;42.626;23.382;2022-10-31T07:05:09;6.23;;;3.70;;
10005;SDS011;5042;42.626;23.382;2022-10-31T07:07:36;4.27;;;3.33;;
10005;SDS011;5042;42.626;23.382;2022-10-31T07:10:05;6.17;;;3.57;;
10005;SDS011;5042;42.626;23.382;2022-10-31T07:12:31;5.63;;;3.93;;
10005;SDS011;5042;42.626;23.382;2022-10-31T07:14:58;4.93;;;3.63;;
10005;SDS011;5042;42.626;23.382;2022-10-31T07:17:25;4.80;;;3.27;;
10005;SDS011;5042;42.626;23.382;2022-10-31T07:19:52;3.83;;;3.30;;
10005;SDS011;5042;42.626;23.382;2022-10-31T07:22:18;6.00;;;3.97;;
10005;SDS011;5042;42.626;23.382;2022-10-31T07:24:45;4.00;;;3.60;;
10005;SDS011;5042;42.626;23.382;2022-10-31T07:27:13;6.53;;;5.03;;
10005;SDS011;5042;42.626;23.382;2022-10-31T07:29:40;8.50;;;5.53;;
10005;SDS011;5042;42.626;23.382;2022-10-31T07:32:07;9.47;;;5.00;;
10005;SDS011;5042;42.626;23.382;2022-10-31T07:34:34;8.43;;;6.37;;
10005;SDS011;5042;42.626;23.382;2022-10-31T07:37:00;7.20;;;5.85;;
10005;SDS011;5042;42.626;23.382;2022-10-31T07:39:27;7.87;;;5.97;;
10005;SDS011;5042;42.626;23.382;2022-10-31T07:41:54;8.03;;;6.27;;
10005;SDS011;5042;42.626;23.382;2022-10-31T07:44:25;9.17;;;6.50;;
10005;SDS011;5042;42.626;23.382;2022-10-31T07:46:52;8.33;;;7.03;;
10005;SDS011;5042;42.626;23.382;2022-10-31T07:49:19;9.27;;;6.57;;
10005;SDS011;5042;42.626;23.382;2022-10-31T07:51:46;8.53;;;6.63;;
10005;SDS011;5042;42.626;23.382;2022-10-31T07:54:12;11.20;;;7.55;;
10005;SDS011;5042;42.626;23.382;2022-10-31T07:56:39;10.13;;;6.60;;
10005;SDS011;5042;42.626;23.382;2022-10-31T07:59:06;10.43;;;7.20;;
10005;SDS011;5042;42.626;23.382;2022-10-31T08:01:34;8.20;;;7.03;;
10005;SDS011;5042;42.626;23.382;2022-10-31T08:04:00;9.57;;;6.95;;
10005;SDS011;5042;42.626;23.382;2022-10-31T08:06:27;9.23;;;6.75;;
10005;SDS011;5042;42.626;23.382;2022-10-31T08:08:54;6.90;;;6.15;;
10005;SDS011;5042;42.626;23.382;2022-10-31T08:11:21;9.85;;;6.82;;
10005;SDS011;5042;42.626;23.382;2022-10-31T08:13:48;10.27;;;6.65;;
10005;SDS011;5042;42.626;23.382;2022-10-31T08:16:14;8.07;;;6.75;;
10005;SDS011;5042;42.626;23.382;2022-10-31T08:18:42;8.65;;;6.43;;
10005;SDS011;5042;42.626;23.382;2022-10-31T08:21:09;9.60;;;6.63;;
10005;SDS011;5042;42.626;23.382;2022-10-31T08:23:36;8.52;;;6.57;;
10005;SDS011;5042;42.626;23.382;2022-10-31T08:26:03;8.13;;;6.47;;
10005;SDS011;5042;42.626;23.382;2022-10-31T08:28:31;7.93;;;6.43;;
10005;SDS011;5042;42.626;23.382;2022-10-31T08:30:58;9.27;;;7.22;;
10005;SDS011;5042;42.626;23.382;2022-10-31T08:33:24;8.85;;;6.60;;
10005;SDS011;5042;42.626;23.382;2022-10-31T08:35:53;9.95;;;6.72;;
10005;SDS011;5042;42.626;23.382;2022-10-31T08:38:19;8.88;;;6.40;;
10005;SDS011;5042;42.626;23.382;2022-10-31T08:40:47;8.25;;;6.00;;
10005;SDS011;5042;42.626;23.382;2022-10-31T08:43:15;8.63;;;6.20;;
10005;SDS011;5042;42.626;23.382;2022-10-31T08:45:44;10.70;;;6.85;;
10005;SDS011;5042;42.626;23.382;2022-10-31T08:48:13;7.50;;;6.18;;
10005;SDS011;5042;42.626;23.382;2022-10-31T08:50:42;5.90;;;5.30;;
10005;SDS011;5042;42.626;23.382;2022-10-31T08:53:12;8.18;;;6.13;;
10005;SDS011;5042;42.626;23.382;2022-10-31T08:55:40;10.13;;;6.53;;
10005;SDS011;5042;42.626;23.382;2022-10-31T08:58:10;10.63;;;6.18;;
10005;SDS011;5042;42.626;23.382;2022-10-31T09:00:38;8.00;;;6.40;;
10005;SDS011;5042;42.626;23.382;2022-10-31T09:03:06;9.82;;;5.82;;
10005;SDS011;5042;42.626;23.382;2022-10-31T09:05:35;6.70;;;5.85;;
10005;SDS011;5042;42.626;23.382;2022-10-31T09:08:03;7.63;;;5.57;;
10005;SDS011;5042;42.626;23.382;2022-10-31T09:10:33;7.85;;;5.55;;
10005;SDS011;5042;42.626;23.382;2022-10-31T09:13:02;6.75;;;4.90;;
10005;SDS011;5042;42.626;23.382;2022-10-31T09:15:31;5.10;;;4.60;;
10005;SDS011;5042;42.626;23.382;2022-10-31T09:17:59;6.85;;;5.13;;
10005;SDS011;5042;42.626;23.382;2022-10-31T09:20:26;6.65;;;5.38;;
10005;SDS011;5042;42.626;23.382;2022-10-31T09:22:56;7.82;;;4.90;;
10005;SDS011;5042;42.626;23.382;2022-10-31T09:25:25;5.65;;;4.65;;
10005;SDS011;5042;42.626;23.382;2022-10-31T09:27:56;5.70;;;5.07;;
10005;SDS011;5042;42.626;23.382;2022-10-31T09:30:23;8.65;;;5.60;;
10005;SDS011;5042;42.626;23.382;2022-10-31T09:32:54;7.07;;;5.60;;
10005;SDS011;5042;42.626;23.382;2022-10-31T09:35:22;8.52;;;5.82;;
10005;SDS011;5042;42.626;23.382;2022-10-31T09:37:53;10.70;;;5.95;;
10005;SDS011;5042;42.626;23.382;2022-10-31T09:40:20;7.13;;;5.45;;
10005;SDS011;5042;42.626;23.382;2022-10-31T09:42:50;7.40;;;5.30;;
10005;SDS011;5042;42.626;23.382;2022-10-31T09:45:26;6.97;;;4.82;;
10005;SDS011;5042;42.626;23.382;2022-10-31T09:48:01;9.57;;;5.25;;
10005;SDS011;5042;42.626;23.382;2022-10-31T09:50:38;5.75;;;4.75;;
10005;SDS011;5042;42.626;23.382;2022-10-31T09:53:10;5.10;;;4.60;;
10005;SDS011;5042;42.626;23.382;2022-10-31T09:55:44;4.93;;;4.35;;
10005;SDS011;5042;42.626;23.382;2022-10-31T09:58:15;6.07;;;4.43;;
10005;SDS011;5042;42.626;23.382;2022-10-31T10:00:45;5.80;;;4.20;;
10005;SDS011;5042;42.626;23.382;2022-10-31T10:03:18;5.18;;;4.57;;
10005;SDS011;5042;42.626;23.382;2022-10-31T10:05:56;5.82;;;4.70;;
10005;SDS011;5042;42.626;23.382;2022-10-31T10:08:30;5.18;;;4.13;;
10005;SDS011;5042;42.626;23.382;2022-10-31T10:10:59;9.88;;;5.57;;
10005;SDS011;5042;42.626;23.382;2022-10-31T10:13:46;4.70;;;3.80;;
10005;SDS011;5042;42.626;23.382;2022-10-31T10:16:25;3.97;;;3.42;;
10005;SDS011;5042;42.626;23.382;2022-10-31T10:19:05;3.05;;;2.40;;
10005;SDS011;5042;42.626;23.382;2022-10-31T10:21:45;3.53;;;2.50;;
10005;SDS011;5042;42.626;23.382;2022-10-31T10:24:25;5.95;;;2.85;;
10005;SDS011;5042;42.626;23.382;2022-10-31T10:27:03;3.17;;;2.72;;
10005;SDS011;5042;42.626;23.382;2022-10-31T10:29:40;5.20;;;2.75;;
10005;SDS011;5042;42.626;23.382;2022-10-31T10:32:12;2.88;;;2.50;;
10005;SDS011;5042;42.626;23.382;2022-10-31T10:34:50;3.92;;;2.80;;
10005;SDS011;5042;42.626;23.382;2022-10-31T10:37:22;3.47;;;2.70;;
10005;SDS011;5042;42.626;23.382;2022-10-31T10:39:59;3.20;;;2.30;;
10005;SDS011;5042;42.626;23.382;2022-10-31T10:42:34;2.50;;;2.30;;
10005;SDS011;5042;42.626;23.382;2022-10-31T10:45:21;3.05;;;1.88;;
10005;SDS011;5042;42.626;23.382;2022-10-31T10:48:07;3.53;;;2.20;;
10005;SDS011;5042;42.626;23.382;2022-10-31T10:50:41;2.42;;;1.67;;
10005;SDS011;5042;42.626;23.382;2022-10-31T10:53:17;3.58;;;2.45;;
10005;SDS011;5042;42.626;23.382;2022-10-31T10:55:59;2.95;;;1.90;;
10005;SDS011;5042;42.626;23.382;2022-10-31T10:58:36;3.25;;;1.77;;
10005;SDS011;5042;42.626;23.382;2022-10-31T11:01:10;2.10;;;1.90;;
10005;SDS011;5042;42.626;23.382;2022-10-31T11:03:39;2.60;;;2.30;;
10005;SDS011;5042;42.626;23.382;2022-10-31T11:06:15;3.78;;;2.25;;
10005;SDS011;5042;42.626;23.382;2022-10-31T11:08:47;2.60;;;2.10;;
10005;SDS011;5042;42.626;23.382;2022-10-31T11:11:24;3.40;;;2.17;;
10005;SDS011;5042;42.626;23.382;2022-10-31T11:13:57;2.65;;;1.90;;
10005;SDS011;5042;42.626;23.382;2022-10-31T11:16:30;2.33;;;1.70;;
10005;SDS011;5042;42.626;23.382;2022-10-31T11:19:07;4.95;;;4.20;;
10005;SDS011;5042;42.626;23.382;2022-10-31T11:21:39;2.50;;;2.30;;
10005;SDS011;5042;42.626;23.382;2022-10-31T11:24:12;3.35;;;1.65;;
10005;SDS011;5042;42.626;23.382;2022-10-31T11:26:41;3.03;;;2.08;;
10005;SDS011;5042;42.626;23.382;2022-10-31T11:29:13;1.77;;;1.60;;
10005;SDS011;5042;42.626;23.382;2022-10-31T11:31:43;1.88;;;1.55;;
10005;SDS011;5042;42.626;23.382;2022-10-31T11:34:18;2.00;;;1.40;;
10005;SDS011;5042;42.626;23.382;2022-10-31T11:36:53;1.92;;;1.50;;
10005;SDS011;5042;42.626;23.382;2022-10-31T11:39:24;1.67;;;1.58;;
10005;SDS011;5042;42.626;23.382;2022-10-31T11:41:51;5.97;;;1.60;;
10005;SDS011;5042;42.626;23.382;2022-10-31T11:44:20;1.55;;;1.27;;
10005;SDS011;5042;42.626;23.382;2022-10-31T11:46:51;3.83;;;1.90;;
10005;SDS011;5042;42.626;23.382;2022-10-31T11:49:23;2.95;;;1.60;;
10005;SDS011;5042;42.626;23.382;2022-10-31T11:51:55;4.65;;;2.03;;
10005;SDS011;5042;42.626;23.382;2022-10-31T11:54:25;3.42;;;1.92;;
10005;SDS011;5042;42.626;23.382;2022-10-31T11:56:54;3.90;;;1.85;;
10005;SDS011;5042;42.626;23.382;2022-10-31T11:59:23;2.45;;;1.92;;
10005;SDS011;5042;42.626;23.382;2022-10-31T12:01:54;2.72;;;1.77;;
10005;SDS011;5042;42.626;23.382;2022-10-31T12:04:24;2.38;;;1.40;;
10005;SDS011;5042;42.626;23.382;2022-10-31T12:07:03;4.05;;;1.70;;
10005;SDS011;5042;42.626;23.382;2022-10-31T12:09:34;1.83;;;1.70;;
10005;SDS011;5042;42.626;23.382;2022-10-31T12:15:16;2.78;;;1.77;;
10005;SDS011;5042;42.626;23.382;2022-10-31T12:17:56;2.40;;;2.00;;
10005;SDS011;5042;42.626;23.382;2022-10-31T12:20:57;2.55;;;1.60;;
10005;SDS011;5042;42.626;23.382;2022-10-31T12:23:38;4.00;;;2.13;;
10005;SDS011;5042;42.626;23.382;2022-10-31T12:26:15;2.63;;;2.00;;
10005;SDS011;5042;42.626;23.382;2022-10-31T12:29:00;2.20;;;1.83;;
10005;SDS011;5042;42.626;23.382;2022-10-31T12:31:44;2.15;;;1.92;;
10005;SDS011;5042;42.626;23.382;2022-10-31T12:34:30;4.82;;;2.08;;
10005;SDS011;5042;42.626;23.382;2022-10-31T12:37:15;2.33;;;1.73;;
10005;SDS011;5042;42.626;23.382;2022-10-31T12:39:54;2.63;;;1.98;;
10005;SDS011;5042;42.626;23.382;2022-10-31T12:42:37;2.05;;;1.65;;
10005;SDS011;5042;42.626;23.382;2022-10-31T12:45:24;3.55;;;1.70;;
10005;SDS011;5042;42.626;23.382;2022-10-31T12:48:02;2.00;;;1.58;;
10005;SDS011;5042;42.626;23.382;2022-10-31T12:50:54;2.90;;;1.70;;
10005;SDS011;5042;42.626;23.382;2022-10-31T12:53:36;3.05;;;1.92;;
10005;SDS011;5042;42.626;23.382;2022-10-31T12:56:20;3.15;;;1.73;;
10005;SDS011;5042;42.626;23.382;2022-10-31T12:58:56;3.30;;;2.05;;
10005;SDS011;5042;42.626;23.382;2022-10-31T13:01:29;1.65;;;1.30;;
10005;SDS011;5042;42.626;23.382;2022-10-31T13:04:02;1.90;;;1.70;;
10005;SDS011;5042;42.626;23.382;2022-10-31T13:06:34;3.05;;;1.80;;
10005;SDS011;5042;42.626;23.382;2022-10-31T13:09:05;4.80;;;1.92;;
10005;SDS011;5042;42.626;23.382;2022-10-31T13:11:35;2.28;;;1.77;;
10005;SDS011;5042;42.626;23.382;2022-10-31T13:14:06;2.88;;;1.90;;
10005;SDS011;5042;42.626;23.382;2022-10-31T13:16:38;2.05;;;1.83;;
10005;SDS011;5042;42.626;23.382;2022-10-31T13:19:09;2.10;;;1.98;;
10005;SDS011;5042;42.626;23.382;2022-10-31T13:21:45;3.75;;;1.90;;
10005;SDS011;5042;42.626;23.382;2022-10-31T13:24:23;2.75;;;1.67;;
10005;SDS011;5042;42.626;23.382;2022-10-31T13:26:57;4.82;;;2.35;;
10005;SDS011;5042;42.626;23.382;2022-10-31T14:50:31;3.40;;;1.90;;
10005;SDS011;5042;42.626;23.382;2022-10-31T14:53:04;2.65;;;2.45;;
10005;SDS011;5042;42.626;23.382;2022-10-31T14:55:38;3.45;;;2.20;;
10005;SDS011;5042;42.626;23.382;2022-10-31T14:58:12;5.00;;;2.60;;
10005;SDS011;5042;42.626;23.382;2022-10-31T15:00:43;3.40;;;2.58;;
10005;SDS011;5042;42.626;23.382;2022-10-31T15:03:12;6.35;;;3.30;;
10005;SDS011;5042;42.626;23.382;2022-10-31T15:05:44;6.00;;;2.80;;
10005;SDS011;5042;42.626;23.382;2022-10-31T15:08:25;4.18;;;3.40;;
10005;SDS011;5042;42.626;23.382;2022-10-31T15:10:55;5.80;;;3.67;;
10005;SDS011;5042;42.626;23.382;2022-10-31T15:13:23;5.40;;;2.80;;
10005;SDS011;5042;42.626;23.382;2022-10-31T15:15:51;4.68;;;2.50;;
10005;SDS011;5042;42.626;23.382;2022-10-31T15:18:22;3.03;;;1.90;;
10005;SDS011;5042;42.626;23.382;2022-10-31T15:20:52;3.65;;;1.60;;
10005;SDS011;5042;42.626;23.382;2022-10-31T15:23:21;2.95;;;1.85;;
10005;SDS011;5042;42.626;23.382;2022-10-31T15:25:49;10.68;;;3.58;;
10005;SDS011;5042;42.626;23.382;2022-10-31T15:28:21;8.00;;;3.88;;
10005;SDS011;5042;42.626;23.382;2022-10-31T15:30:52;7.40;;;3.40;;
10005;SDS011;5042;42.626;23.382;2022-10-31T15:33:21;7.13;;;3.40;;
10005;SDS011;5042;42.626;23.382;2022-10-31T15:35:59;10.23;;;4.15;;
10005;SDS011;5042;42.626;23.382;2022-10-31T15:38:27;9.85;;;4.40;;
10005;SDS011;5042;42.626;23.382;2022-10-31T15:40:55;8.68;;;4.25;;
10005;SDS011;5042;42.626;23.382;2022-10-31T15:43:26;7.03;;;4.93;;
10005;SDS011;5042;42.626;23.382;2022-10-31T15:45:57;20.33;;;4.68;;
10005;SDS011;5042;42.626;23.382;2022-10-31T15:48:25;6.20;;;4.05;;
10005;SDS011;5042;42.626;23.382;2022-10-31T15:50:52;7.32;;;4.70;;
10005;SDS011;5042;42.626;23.382;2022-10-31T15:53:23;7.60;;;5.15;;
10005;SDS011;5042;42.626;23.382;2022-10-31T15:55:53;7.68;;;4.60;;
10005;SDS011;5042;42.626;23.382;2022-10-31T15:58:21;8.07;;;4.07;;
10005;SDS011;5042;42.626;23.382;2022-10-31T16:01:00;7.75;;;4.00;;
10005;SDS011;5042;42.626;23.382;2022-10-31T16:03:29;5.28;;;3.22;;
10005;SDS011;5042;42.626;23.382;2022-10-31T16:05:57;6.75;;;4.30;;
10005;SDS011;5042;42.626;23.382;2022-10-31T16:08:31;5.43;;;3.28;;
10005;SDS011;5042;42.626;23.382;2022-10-31T16:11:00;5.00;;;3.10;;
10005;SDS011;5042;42.626;23.382;2022-10-31T16:13:41;5.15;;;3.10;;
10005;SDS011;5042;42.626;23.382;2022-10-31T16:16:21;6.18;;;3.35;;
10005;SDS011;5042;42.626;23.382;2022-10-31T16:18:49;7.63;;;3.75;;
10005;SDS011;5042;42.626;23.382;2022-10-31T16:21:23;5.13;;;3.53;;
10005;SDS011;5042;42.626;23.382;2022-10-31T16:23:54;12.77;;;6.05;;
10005;SDS011;5042;42.626;23.382;2022-10-31T16:26:25;9.27;;;5.68;;
10005;SDS011;5042;42.626;23.382;2022-10-31T16:28:53;7.18;;;5.15;;
10005;SDS011;5042;42.626;23.382;2022-10-31T16:31:30;19.08;;;6.82;;
10005;SDS011;5042;42.626;23.382;2022-10-31T16:34:03;7.95;;;4.32;;